Terminal Aerodrome Forecast
Issued by NWS

Home | Current Version | Previous Version | Text Only | Print | Product List | Glossary On
Versions: 1 2 3 4 5 6 7 8 9 10 11 12 13 14 15 16 17 18 19 20
053
FTUS43 KMQT 241237 AAA
TAFCMX
TAF AMD
KCMX 241237Z 2413/2512 07003KT 1/4SM FG BKN002
     FM241400 26008KT 5SM BR BKN014
     FM241600 27010G16KT P6SM BKN020
     FM241900 28014G23KT P6SM SCT070
     FM250100 28012G18KT P6SM FEW200=

USA.gov is the U.S. government's official web portal to all federal, state and local government web resources and services.